Time;durP1;ratioP1;P1;durP2;ratioP2;P2;SDS_P1;SDS_P2;PMS_P1;PMS_P2;Temp;Humidity;BMP_temperature;BMP_pressure;BME280_temperature;BME280_humidity;BME280_pressure;Samples;Min_cycle;Max_cycle;Signal;HPM_P1;HPM_P2
2021/12/17 00:00:18;;;;;;;;;;;;;;;16.33;53.71;104092.81;5067063;28;19917;-92
2021/12/17 00:08:10;;;;;;;;;;;;;;;15.64;55.81;104100.41;5082468;28;19962;-92
2021/12/17 00:10:35;;;;;;;;;;;;;;;16.37;53.85;104100.03;5063850;28;19917;-93
2021/12/17 00:13:01;;;;;;;;;;;;;;;16.45;52.82;104089.81;5062805;28;20012;-89
2021/12/17 00:15:26;;;;;;;;;;;;;;;16.16;54.35;104096.78;5062776;28;19920;-89
2021/12/17 00:17:58;;;;;;;;;;;;;;;16.96;52.12;104095.13;5064034;28;19985;-91
2021/12/17 00:49:46;;;;;;;;;;;;;;;17.19;50.55;104099.16;5087187;28;19917;-91
2021/12/17 00:52:12;;;;;;;;;;;;;;;17.00;50.81;104095.97;5086653;28;19912;-90
2021/12/17 00:54:40;;;;;;;;;;;;;;;17.38;50.58;104085.94;5069240;28;19916;-91
2021/12/17 00:57:11;;;;;;;;;;;;;;;17.62;49.57;104089.91;5068708;28;19916;-94
2021/12/17 00:59:37;;;;;;;;;;;;;;;17.30;50.56;104102.56;5068633;28;19923;-91
2021/12/17 01:02:05;;;;;;;;;;;;;;;17.79;49.63;104094.06;5069200;28;19956;-91
2021/12/17 01:04:31;;;;;;;;;;;;;;;17.29;50.36;104108.97;5069710;28;19924;-92
2021/12/17 01:06:56;;;;;;;;;;;;;;;17.73;49.50;104097.84;5069750;28;20289;-92
2021/12/17 01:09:24;;;;;;;;;;;;;;;17.87;48.79;104095.66;5068729;28;19920;-93
2021/12/17 01:11:49;;;;;;;;;;;;;;;17.94;48.75;104092.78;5069538;28;19901;-92
2021/12/17 01:14:15;;;;;;;;;;;;;;;17.91;48.96;104096.50;5069103;28;19959;-91
2021/12/17 01:16:40;;;;;;;;;;;;;;;16.93;51.17;104097.94;5067267;28;20285;-92
2021/12/17 01:22:38;;;;;;;;;;;;;;;17.91;49.01;104079.16;5084783;28;19975;-91
2021/12/17 01:24:57;;;;;;;;;;;;;;;17.93;48.70;104078.16;5084796;28;19901;-93
2021/12/17 01:35:36;;;;;;;;;;;;;;;17.92;48.63;104079.13;5083501;28;19962;-91
2021/12/17 01:43:29;;;;;;;;;;;;;;;17.93;48.84;104097.34;5083821;28;19921;-93
2021/12/17 01:45:54;;;;;;;;;;;;;;;17.45;49.80;104097.63;5065754;28;19978;-93
2021/12/17 01:48:26;;;;;;;;;;;;;;;17.81;49.14;104098.53;5066643;28;19916;-90
2021/12/17 01:56:53;;;;;;;;;;;;;;;18.11;48.33;104092.31;5087067;28;20005;-91
2021/12/17 01:59:25;;;;;;;;;;;;;;;18.22;47.77;104093.81;5067780;28;19923;-91
2021/12/17 02:01:51;;;;;;;;;;;;;;;17.98;48.61;104092.66;5067152;28;19920;-91
2021/12/17 02:04:16;;;;;;;;;;;;;;;17.93;48.80;104089.13;5066369;28;19917;-91
2021/12/17 02:06:42;;;;;;;;;;;;;;;17.51;49.47;104086.53;5066631;28;20031;-92
2021/12/17 02:09:30;;;;;;;;;;;;;;;17.66;49.72;104090.72;5066302;28;19901;-91
2021/12/17 02:20:23;;;;;;;;;;;;;;;17.82;48.97;104083.00;5084715;28;19986;-92
2021/12/17 02:28:46;;;;;;;;;;;;;;;17.40;50.16;104078.59;5084548;28;19970;-92
2021/12/17 02:33:45;;;;;;;;;;;;;;;17.70;49.60;104079.63;5084389;28;19916;-92
2021/12/17 02:36:11;;;;;;;;;;;;;;;17.81;48.93;104083.94;5064794;28;19923;-90
2021/12/17 02:38:39;;;;;;;;;;;;;;;17.95;48.46;104086.34;5065358;28;19923;-89
2021/12/17 02:46:36;;;;;;;;;;;;;;;17.85;48.80;104100.25;5082611;28;19931;-91
2021/12/17 02:49:01;;;;;;;;;;;;;;;17.54;49.72;104101.06;5069318;28;19920;-89
2021/12/17 02:51:26;;;;;;;;;;;;;;;17.69;48.96;104091.56;5072345;28;20362;-86
2021/12/17 02:53:53;;;;;;;;;;;;;;;17.79;48.91;104091.31;5074763;28;19932;-88
2021/12/17 02:56:18;;;;;;;;;;;;;;;17.81;48.77;104084.81;5074652;28;19920;-89
2021/12/17 02:58:45;;;;;;;;;;;;;;;17.32;49.74;104084.25;5070825;28;19927;-90
2021/12/17 03:01:12;;;;;;;;;;;;;;;17.56;50.01;104083.66;5087213;28;19916;-90
2021/12/17 03:03:38;;;;;;;;;;;;;;;18.01;48.47;104080.69;5072114;28;19924;-87
2021/12/17 03:06:03;;;;;;;;;;;;;;;17.89;48.85;104076.47;5091340;28;19917;-91
2021/12/17 03:08:29;;;;;;;;;;;;;;;17.73;49.09;104077.78;5069693;28;19916;-89
2021/12/17 03:10:55;;;;;;;;;;;;;;;17.80;49.03;104068.44;5068611;28;19924;-88
2021/12/17 03:13:22;;;;;;;;;;;;;;;17.59;49.29;104079.03;5067915;28;19916;-89
2021/12/17 03:15:53;;;;;;;;;;;;;;;17.62;49.41;104075.28;5051232;28;19908;-90
2021/12/17 03:23:40;;;;;;;;;;;;;;;17.78;48.50;104073.97;5085137;28;19944;-90
2021/12/17 03:26:20;;;;;;;;;;;;;;;17.81;48.67;104067.50;5067113;28;21957;-89
2021/12/17 03:28:47;;;;;;;;;;;;;;;18.00;48.38;104073.44;5066933;28;19908;-92
2021/12/17 03:31:13;;;;;;;;;;;;;;;17.90;48.56;104078.25;5066644;28;19927;-92
2021/12/17 03:33:41;;;;;;;;;;;;;;;17.70;48.98;104082.38;5066743;28;19939;-92
2021/12/17 03:36:07;;;;;;;;;;;;;;;17.99;48.61;104083.47;5066453;28;19983;-89
2021/12/17 03:38:33;;;;;;;;;;;;;;;17.34;49.64;104084.22;5067406;28;19926;-90
2021/12/17 03:41:20;;;;;;;;;;;;;;;17.57;49.64;104080.91;5066982;28;19920;-89
2021/12/17 03:43:47;;;;;;;;;;;;;;;17.77;49.18;104084.94;5053547;28;19930;-90
2021/12/17 03:46:12;;;;;;;;;;;;;;;17.33;50.56;104082.41;5067938;28;19927;-90
2021/12/17 03:48:39;;;;;;;;;;;;;;;17.64;49.62;104081.66;5068209;28;19912;-91
2021/12/17 03:51:10;;;;;;;;;;;;;;;17.42;50.29;104078.56;5067344;28;20280;-91
2021/12/17 03:53:35;;;;;;;;;;;;;;;17.47;49.70;104080.25;5086012;28;19924;-90
2021/12/17 03:56:00;;;;;;;;;;;;;;;17.31;50.06;104078.81;5067819;28;19920;-91
2021/12/17 03:58:26;;;;;;;;;;;;;;;17.39;50.24;104074.03;5069232;28;19969;-89
2021/12/17 04:00:52;;;;;;;;;;;;;;;17.61;49.57;104084.47;5090305;28;19924;-88
2021/12/17 04:03:17;;;;;;;;;;;;;;;17.14;50.92;104087.44;5070885;28;19916;-91
2021/12/17 04:05:42;;;;;;;;;;;;;;;17.27;50.49;104091.69;5074051;28;19991;-88
2021/12/17 04:08:08;;;;;;;;;;;;;;;17.21;50.57;104094.56;5087436;28;20285;-89
2021/12/17 04:10:41;;;;;;;;;;;;;;;16.71;52.29;104089.25;5090641;28;20391;-92
2021/12/17 04:13:25;;;;;;;;;;;;;;;17.02;51.45;104095.94;5071202;28;19913;-93
2021/12/17 04:15:56;;;;;;;;;;;;;;;16.86;52.02;104096.22;5068033;28;19916;-89
2021/12/17 04:18:22;;;;;;;;;;;;;;;16.83;52.09;104096.28;5067137;28;19935;-91
2021/12/17 04:20:47;;;;;;;;;;;;;;;17.11;51.27;104090.25;5067213;28;19916;-91
2021/12/17 04:23:12;;;;;;;;;;;;;;;17.19;50.96;104093.69;5067895;28;20425;-89
2021/12/17 04:25:38;;;;;;;;;;;;;;;17.36;50.44;104102.41;5066730;28;19955;-89
2021/12/17 04:28:03;;;;;;;;;;;;;;;17.33;50.37;104093.34;5068895;28;19968;-89
2021/12/17 04:30:29;;;;;;;;;;;;;;;17.27;50.31;104094.44;5069769;28;19916;-90
2021/12/17 04:32:55;;;;;;;;;;;;;;;17.78;48.74;104106.81;5052434;28;19920;-91
2021/12/17 04:35:20;;;;;;;;;;;;;;;17.02;51.40;104098.69;5068164;28;19978;-90
2021/12/17 04:37:46;;;;;;;;;;;;;;;17.17;50.56;104101.06;5068441;28;19920;-89
2021/12/17 04:40:11;;;;;;;;;;;;;;;17.43;50.22;104099.53;5069272;28;19924;-91
2021/12/17 04:42:59;;;;;;;;;;;;;;;17.18;50.88;104100.09;5069329;28;19925;-90
2021/12/17 04:45:25;;;;;;;;;;;;;;;17.48;49.76;104093.00;5069608;28;19924;-90
2021/12/17 04:58:46;;;;;;;;;;;;;;;17.36;50.02;104083.25;5090068;28;20534;-92
2021/12/17 05:01:14;;;;;;;;;;;;;;;17.26;50.06;104092.63;5071870;28;19917;-90
2021/12/17 05:03:40;;;;;;;;;;;;;;;17.26;49.95;104094.47;5071750;28;19986;-90
2021/12/17 05:06:05;;;;;;;;;;;;;;;17.59;49.46;104095.47;5070983;28;19916;-89
2021/12/17 05:08:31;;;;;;;;;;;;;;;17.45;50.22;104098.56;5070920;28;19900;-89
2021/12/17 05:19:10;;;;;;;;;;;;;;;17.78;48.40;104092.25;5088320;28;19923;-90
2021/12/17 05:21:36;;;;;;;;;;;;;;;17.73;48.42;104083.25;5068707;28;20023;-91
2021/12/17 05:24:02;;;;;;;;;;;;;;;17.67;48.97;104082.47;5070385;28;19939;-89
2021/12/17 05:26:27;;;;;;;;;;;;;;;17.68;48.65;104080.66;5069541;28;19924;-91
2021/12/17 05:28:54;;;;;;;;;;;;;;;17.75;48.63;104085.00;5070577;28;19983;-90
2021/12/17 05:31:21;;;;;;;;;;;;;;;17.93;48.45;104080.00;5070625;28;19916;-91
2021/12/17 05:33:47;;;;;;;;;;;;;;;17.79;48.62;104080.34;5069915;28;19970;-90
2021/12/17 05:36:12;;;;;;;;;;;;;;;17.90;48.11;104086.47;5070555;28;20007;-90
2021/12/17 05:38:39;;;;;;;;;;;;;;;17.49;49.38;104088.41;5088312;28;19989;-90
2021/12/17 05:41:04;;;;;;;;;;;;;;;17.13;50.01;104093.84;5069792;28;19920;-91
2021/12/17 05:43:35;;;;;;;;;;;;;;;17.42;49.84;104103.19;5070367;28;19917;-90
2021/12/17 05:48:26;;;;;;;;;;;;;;;17.16;49.85;104104.72;5088157;28;19976;-91
2021/12/17 05:50:55;;;;;;;;;;;;;;;17.59;49.33;104090.00;5069351;28;19924;-90
2021/12/17 05:53:21;;;;;;;;;;;;;;;17.50;49.47;104095.69;5087725;28;19916;-92
2021/12/17 05:55:46;;;;;;;;;;;;;;;17.48;49.30;104093.00;5071426;28;19923;-92
2021/12/17 05:58:11;;;;;;;;;;;;;;;17.62;49.12;104098.13;5072906;28;19927;-90
2021/12/17 06:00:39;;;;;;;;;;;;;;;17.94;48.18;104090.03;5074068;28;19983;-90
2021/12/17 06:03:04;;;;;;;;;;;;;;;17.57;48.98;104091.84;5089945;28;19940;-91
2021/12/17 06:05:33;;;;;;;;;;;;;;;17.38;49.43;104105.09;5073825;28;19917;-90
2021/12/17 06:07:59;;;;;;;;;;;;;;;17.73;48.92;104106.06;5073676;28;19947;-90
2021/12/17 06:10:24;;;;;;;;;;;;;;;17.47;49.27;104104.88;5090484;28;19917;-90
2021/12/17 06:12:50;;;;;;;;;;;;;;;17.56;48.89;104103.75;5072528;28;20313;-90
2021/12/17 06:15:17;;;;;;;;;;;;;;;17.83;48.38;104104.88;5072885;28;20354;-90
2021/12/17 06:17:43;;;;;;;;;;;;;;;17.07;50.20;104114.03;5071790;28;19928;-92
2021/12/17 06:20:09;;;;;;;;;;;;;;;16.66;51.64;104113.97;5071232;28;19920;-91
2021/12/17 06:22:35;;;;;;;;;;;;;;;16.38;52.64;104118.19;5090224;28;19917;-90
2021/12/17 06:25:01;;;;;;;;;;;;;;;17.06;50.62;104123.19;5073114;28;19924;-89
2021/12/17 06:27:27;;;;;;;;;;;;;;;16.28;52.95;104122.97;5071134;28;19919;-90
2021/12/17 06:29:52;;;;;;;;;;;;;;;16.26;53.52;104128.44;5070589;28;19948;-89
2021/12/17 06:32:19;;;;;;;;;;;;;;;17.09;50.85;104122.19;5070816;28;19968;-90
2021/12/17 06:34:44;;;;;;;;;;;;;;;17.40;49.93;104122.38;5070552;28;19917;-87
2021/12/17 06:37:09;;;;;;;;;;;;;;;17.40;49.54;104126.97;5069600;28;19917;-88
2021/12/17 06:39:35;;;;;;;;;;;;;;;17.17;50.04;104121.09;5070429;28;19928;-89
2021/12/17 06:42:00;;;;;;;;;;;;;;;15.84;54.09;104127.41;5069787;28;19917;-88
2021/12/17 06:44:26;;;;;;;;;;;;;;;16.18;53.41;104122.22;5070622;28;19912;-87
2021/12/17 06:54:54;;;;;;;;;;;;;;;17.33;50.48;104132.59;5087736;28;19922;-89
2021/12/17 07:10:49;;;;;;;;;;;;;;;17.80;48.68;104121.41;5089912;28;20110;-91
2021/12/17 07:21:41;;;;;;;;;;;;;;;17.62;49.25;104144.66;5085005;28;19979;-91
2021/12/17 07:31:12;;;;;;;;;;;;;;;17.53;49.59;104140.31;5080372;28;19928;-91
2021/12/17 07:32:33;;;;;;;;;;;;;;;17.53;49.44;104137.56;5080298;28;20394;-91
2021/12/17 07:40:09;;;;;;;;;;;;;;;17.80;48.83;104142.38;5059559;28;19920;-92
2021/12/17 07:42:37;;;;;;;;;;;;;;;17.73;49.05;104151.72;5041609;28;19905;-92
2021/12/17 07:45:03;;;;;;;;;;;;;;;17.96;48.20;104151.16;5042214;28;19928;-92
2021/12/17 07:47:28;;;;;;;;;;;;;;;17.87;48.26;104155.91;5044883;28;19916;-92
2021/12/17 07:49:54;;;;;;;;;;;;;;;17.14;50.21;104158.56;5055972;28;19921;-93
2021/12/17 07:52:19;;;;;;;;;;;;;;;17.82;48.70;104154.22;5048713;28;19920;-92
2021/12/17 07:54:45;;;;;;;;;;;;;;;17.55;49.43;104156.69;5055014;28;19952;-92
2021/12/17 07:57:11;;;;;;;;;;;;;;;17.85;48.67;104162.34;5042925;28;19917;-93
2021/12/17 07:59:37;;;;;;;;;;;;;;;17.76;48.97;104168.97;5049424;28;19901;-92
2021/12/17 08:02:02;;;;;;;;;;;;;;;17.76;48.98;104170.81;5053665;28;20378;-91
2021/12/17 08:04:28;;;;;;;;;;;;;;;17.79;48.72;104171.63;5055037;28;19917;-91
2021/12/17 08:06:53;;;;;;;;;;;;;;;17.82;48.89;104170.66;5055486;28;19959;-93
2021/12/17 08:09:21;;;;;;;;;;;;;;;17.84;48.36;104171.50;5062552;28;19917;-92
2021/12/17 08:11:55;;;;;;;;;;;;;;;17.91;48.32;104177.78;5054850;28;20023;-89
2021/12/17 08:14:21;;;;;;;;;;;;;;;17.80;49.02;104184.38;5049175;28;19971;-94
2021/12/17 08:32:17;;;;;;;;;;;;;;;18.15;48.13;104166.16;5061023;28;19909;-94
2021/12/17 08:34:43;;;;;;;;;;;;;;;18.17;48.16;104157.91;5043122;28;20416;-93
2021/12/17 08:37:09;;;;;;;;;;;;;;;17.30;49.76;104164.59;5042483;28;20370;-93
2021/12/17 08:39:34;;;;;;;;;;;;;;;17.52;49.54;104162.25;5041510;28;19921;-92
2021/12/17 08:42:00;;;;;;;;;;;;;;;17.67;49.29;104160.97;5041752;28;19962;-94
2021/12/17 08:44:26;;;;;;;;;;;;;;;17.85;49.14;104157.78;5041509;28;19916;-93
2021/12/17 08:46:51;;;;;;;;;;;;;;;18.02;48.47;104160.09;5042828;28;19916;-92
2021/12/17 08:49:16;;;;;;;;;;;;;;;18.05;48.31;104153.66;5059397;28;19923;-93
2021/12/17 08:51:42;;;;;;;;;;;;;;;18.18;48.40;104159.72;5058700;28;19991;-92
2021/12/17 08:54:08;;;;;;;;;;;;;;;18.18;48.08;104160.59;5053650;28;19916;-93
2021/12/17 08:56:34;;;;;;;;;;;;;;;17.97;48.83;104155.69;5057576;28;20003;-94
2021/12/17 08:59:00;;;;;;;;;;;;;;;18.13;48.59;104162.59;5067639;28;19920;-92
2021/12/17 09:01:26;;;;;;;;;;;;;;;18.00;48.75;104156.50;5071839;28;19921;-93
2021/12/17 09:03:51;;;;;;;;;;;;;;;17.92;49.10;104171.34;5075573;28;19916;-88
2021/12/17 09:06:16;;;;;;;;;;;;;;;18.02;48.71;104165.56;5079652;28;19921;-92
2021/12/17 09:08:42;;;;;;;;;;;;;;;17.99;48.97;104165.66;5074378;28;20011;-91
2021/12/17 09:11:08;;;;;;;;;;;;;;;18.21;48.73;104167.84;5070429;28;19939;-91
2021/12/17 09:13:33;;;;;;;;;;;;;;;18.38;48.12;104168.28;5066765;28;19916;-92
2021/12/17 09:16:04;;;;;;;;;;;;;;;18.49;47.72;104167.97;5065319;28;19951;-93
2021/12/17 09:18:29;;;;;;;;;;;;;;;17.86;49.26;104166.88;5065056;28;19970;-94
2021/12/17 09:20:55;;;;;;;;;;;;;;;18.00;49.16;104169.31;5059822;28;19924;-91
2021/12/17 09:23:20;;;;;;;;;;;;;;;18.31;48.64;104166.63;5061668;28;19916;-93
2021/12/17 09:25:46;;;;;;;;;;;;;;;18.34;48.56;104160.19;5064085;28;19900;-92
2021/12/17 09:28:12;;;;;;;;;;;;;;;18.02;49.33;104173.78;5065540;28;19921;-93
2021/12/17 09:30:37;;;;;;;;;;;;;;;18.02;49.61;104170.16;5063512;28;19923;-91
2021/12/17 09:33:02;;;;;;;;;;;;;;;18.36;48.51;104178.38;5064502;28;19925;-92
2021/12/17 09:35:28;;;;;;;;;;;;;;;18.26;49.08;104175.94;5061793;28;20386;-93
2021/12/17 09:37:53;;;;;;;;;;;;;;;17.42;51.70;104182.56;5061574;28;20375;-91
2021/12/17 09:40:18;;;;;;;;;;;;;;;18.08;49.71;104175.47;5056768;28;19955;-90
2021/12/17 09:42:45;;;;;;;;;;;;;;;17.38;51.43;104183.56;5066913;28;20090;-87
2021/12/17 09:45:11;;;;;;;;;;;;;;;17.60;50.25;104189.44;5067869;28;20325;-89
2021/12/17 09:47:36;;;;;;;;;;;;;;;17.49;51.10;104179.63;5065633;28;19967;-90
2021/12/17 09:50:02;;;;;;;;;;;;;;;17.99;50.07;104182.09;5057677;28;19929;-91
2021/12/17 09:52:27;;;;;;;;;;;;;;;17.89;50.44;104188.78;5061121;28;19927;-91
2021/12/17 09:54:53;;;;;;;;;;;;;;;17.15;51.86;104199.56;5051902;28;20023;-90
2021/12/17 09:57:20;;;;;;;;;;;;;;;16.73;53.87;104202.25;5060434;28;19948;-90
2021/12/17 09:59:48;;;;;;;;;;;;;;;17.69;51.31;104205.63;5059455;28;19921;-90
2021/12/17 10:02:13;;;;;;;;;;;;;;;17.41;52.27;104199.91;5054595;28;19917;-91
2021/12/17 10:04:42;;;;;;;;;;;;;;;17.71;50.94;104206.53;5057807;28;19924;-91
2021/12/17 10:07:28;;;;;;;;;;;;;;;16.59;53.30;104213.47;5052819;28;19917;-89
2021/12/17 10:09:54;;;;;;;;;;;;;;;15.12;58.51;104224.84;5058652;28;20019;-90
2021/12/17 10:12:24;;;;;;;;;;;;;;;17.38;52.85;104203.63;5062963;28;20447;-90
2021/12/17 10:15:07;;;;;;;;;;;;;;;17.75;50.87;104204.59;5063892;28;19924;-90
2021/12/17 10:17:34;;;;;;;;;;;;;;;17.07;51.94;104217.09;5065003;28;19924;-91
2021/12/17 10:19:59;;;;;;;;;;;;;;;17.45;51.14;104210.78;5063027;28;20374;-90
2021/12/17 10:22:25;;;;;;;;;;;;;;;17.25;52.92;104213.94;5064600;28;19923;-89
2021/12/17 10:24:56;;;;;;;;;;;;;;;17.08;52.91;104211.59;5074704;28;19931;-91
2021/12/17 10:27:22;;;;;;;;;;;;;;;16.11;55.41;104230.69;5069301;28;19927;-93
2021/12/17 10:29:48;;;;;;;;;;;;;;;16.10;54.91;104225.25;5078176;28;19975;-90
2021/12/17 10:32:18;;;;;;;;;;;;;;;16.73;54.72;104225.97;5075018;28;19924;-89
2021/12/17 10:35:00;;;;;;;;;;;;;;;17.35;52.47;104223.75;5074938;28;20030;-88
2021/12/17 10:37:33;;;;;;;;;;;;;;;17.38;52.00;104222.78;5069712;28;19921;-94
2021/12/17 10:39:58;;;;;;;;;;;;;;;16.91;53.35;104228.34;5064435;28;20408;-93
2021/12/17 10:42:34;;;;;;;;;;;;;;;16.38;55.35;104227.50;5063884;28;19963;-92
2021/12/17 10:45:03;;;;;;;;;;;;;;;16.43;55.66;104225.59;5063912;28;19916;-92
2021/12/17 10:47:35;;;;;;;;;;;;;;;16.93;53.80;104218.28;5065072;28;20366;-93
2021/12/17 10:50:02;;;;;;;;;;;;;;;16.72;53.87;104221.41;5064741;28;19921;-92
2021/12/17 10:52:36;;;;;;;;;;;;;;;17.24;52.33;104225.84;5064120;28;20122;-91
2021/12/17 10:55:14;;;;;;;;;;;;;;;16.17;55.55;104223.31;5063965;28;19916;-93
2021/12/17 10:57:42;;;;;;;;;;;;;;;16.51;54.74;104229.09;5066047;28;19916;-90
2021/12/17 11:00:08;;;;;;;;;;;;;;;16.08;55.10;104227.13;5065944;28;19916;-92
2021/12/17 11:02:33;;;;;;;;;;;;;;;17.15;52.82;104226.94;5066925;28;19971;-91
2021/12/17 11:05:10;;;;;;;;;;;;;;;17.59;51.99;104218.66;5064497;28;19917;-94
2021/12/17 11:07:36;;;;;;;;;;;;;;;17.26;52.41;104210.28;5063981;28;19955;-90
2021/12/17 11:10:03;;;;;;;;;;;;;;;16.41;54.18;104219.25;5063698;28;19916;-95
2021/12/17 11:12:36;;;;;;;;;;;;;;;17.02;53.01;104221.75;5063266;28;19962;-88
2021/12/17 11:15:04;;;;;;;;;;;;;;;17.70;51.34;104216.56;5062859;28;19946;-92
2021/12/17 11:17:29;;;;;;;;;;;;;;;17.83;51.19;104211.69;5064316;28;19916;-92
2021/12/17 11:19:55;;;;;;;;;;;;;;;16.69;54.38;104226.94;5062704;28;19983;-92
2021/12/17 11:22:25;;;;;;;;;;;;;;;16.22;54.84;104216.84;5063695;28;19917;-92
2021/12/17 11:24:51;;;;;;;;;;;;;;;16.24;55.96;104220.44;5064100;28;19904;-92
2021/12/17 11:27:16;;;;;;;;;;;;;;;16.33;55.67;104213.03;5064546;28;19924;-90
2021/12/17 11:29:42;;;;;;;;;;;;;;;16.03;54.67;104218.09;5063590;28;20323;-91
2021/12/17 11:32:08;;;;;;;;;;;;;;;17.26;51.02;104201.19;5065293;28;19912;-91
2021/12/17 11:34:33;;;;;;;;;;;;;;;16.61;52.81;104211.59;5072985;28;19924;-91
2021/12/17 11:37:00;;;;;;;;;;;;;;;16.63;53.81;104206.09;5073817;28;19948;-87
2021/12/17 11:39:33;;;;;;;;;;;;;;;16.58;53.10;104202.56;5072106;28;20013;-87
2021/12/17 11:42:04;;;;;;;;;;;;;;;16.48;53.06;104196.34;5066045;28;19928;-89
2021/12/17 11:44:41;;;;;;;;;;;;;;;17.16;51.56;104203.22;5064433;28;20031;-89
2021/12/17 11:47:08;;;;;;;;;;;;;;;16.91;52.08;104201.00;5052651;28;20402;-90
2021/12/17 11:49:38;;;;;;;;;;;;;;;16.06;55.08;104207.13;5058126;28;19921;-89
2021/12/17 11:52:03;;;;;;;;;;;;;;;16.05;55.23;104206.22;5051911;28;19917;-90
2021/12/17 11:54:30;;;;;;;;;;;;;;;16.51;54.05;104203.59;5055781;28;19924;-90
2021/12/17 11:57:04;;;;;;;;;;;;;;;16.68;53.49;104193.22;5050240;28;20279;-91
2021/12/17 11:59:31;;;;;;;;;;;;;;;16.31;53.55;104188.47;5057208;28;19931;-91
2021/12/17 12:02:23;;;;;;;;;;;;;;;15.03;57.18;104193.16;5050119;28;19920;-90
2021/12/17 12:04:59;;;;;;;;;;;;;;;16.80;52.57;104195.72;5051849;28;19968;-89
2021/12/17 12:07:24;;;;;;;;;;;;;;;16.19;53.85;104195.06;5053641;28;19939;-91
2021/12/17 12:09:58;;;;;;;;;;;;;;;16.19;53.92;104195.06;5059608;28;19976;-87
2021/12/17 12:12:24;;;;;;;;;;;;;;;16.46;53.41;104198.22;5065608;28;19921;-87
2021/12/17 12:14:49;;;;;;;;;;;;;;;15.90;54.62;104204.66;5061839;28;19940;-87
2021/12/17 12:17:34;;;;;;;;;;;;;;;15.65;55.20;104208.66;5054780;28;19917;-90
2021/12/17 12:19:59;;;;;;;;;;;;;;;15.28;56.16;104210.09;5057809;28;19925;-91
2021/12/17 12:22:31;;;;;;;;;;;;;;;15.10;55.82;104219.44;5057265;28;20011;-92
2021/12/17 12:25:15;;;;;;;;;;;;;;;15.28;56.71;104217.34;5058038;28;19917;-91
2021/12/17 12:27:46;;;;;;;;;;;;;;;16.02;52.65;104219.00;5057519;28;19917;-90
2021/12/17 12:30:13;;;;;;;;;;;;;;;15.28;56.18;104221.00;5054540;28;19987;-90
2021/12/17 12:32:58;;;;;;;;;;;;;;;15.28;55.56;104221.00;5066221;28;19913;-91
2021/12/17 12:35:24;;;;;;;;;;;;;;;16.37;52.45;104210.22;5068132;28;19920;-90
2021/12/17 12:38:09;;;;;;;;;;;;;;;15.59;54.30;104216.03;5067015;28;19920;-90
2021/12/17 12:40:35;;;;;;;;;;;;;;;15.87;54.08;104215.63;5058336;28;20011;-90
2021/12/17 12:43:00;;;;;;;;;;;;;;;16.05;54.32;104211.69;5066339;28;19952;-88
2021/12/17 12:45:31;;;;;;;;;;;;;;;15.91;54.63;104217.38;5065295;28;19923;-89
2021/12/17 12:47:58;;;;;;;;;;;;;;;15.97;53.07;104218.19;5064798;28;19913;-88
2021/12/17 12:50:27;;;;;;;;;;;;;;;17.34;49.94;104201.91;5066149;28;19931;-89
2021/12/17 12:52:54;;;;;;;;;;;;;;;16.86;50.54;104204.72;5066568;28;20013;-89
2021/12/17 12:55:21;;;;;;;;;;;;;;;16.70;52.62;104199.56;5065059;28;19917;-90
2021/12/17 12:57:48;;;;;;;;;;;;;;;15.91;53.30;104198.28;5083349;28;19923;-88
2021/12/17 13:00:16;;;;;;;;;;;;;;;16.65;51.43;104196.00;5066409;28;19916;-88
2021/12/17 13:02:42;;;;;;;;;;;;;;;16.08;53.27;104194.34;5066530;28;19916;-89
2021/12/17 13:05:09;;;;;;;;;;;;;;;16.12;53.11;104187.88;5066932;28;19917;-90
2021/12/17 13:07:35;;;;;;;;;;;;;;;15.90;53.01;104185.53;5066683;28;19923;-90
2021/12/17 13:10:14;;;;;;;;;;;;;;;15.75;53.90;104193.94;5057833;28;19968;-91
2021/12/17 13:12:41;;;;;;;;;;;;;;;15.56;55.45;104185.13;5055679;28;20011;-90
2021/12/17 13:15:19;;;;;;;;;;;;;;;15.56;54.04;104188.75;5064342;28;19920;-93
2021/12/17 13:23:18;;;;;;;;;;;;;;;15.17;55.63;104193.88;5061485;28;19948;-90
2021/12/17 13:25:43;;;;;;;;;;;;;;;14.84;57.64;104182.47;5060785;28;19932;-89
2021/12/17 13:28:09;;;;;;;;;;;;;;;15.92;55.11;104171.84;5064017;28;19932;-89
2021/12/17 13:30:34;;;;;;;;;;;;;;;15.26;56.62;104170.13;5065133;28;19913;-88
2021/12/17 13:33:02;;;;;;;;;;;;;;;15.76;55.13;104177.53;5070645;28;19923;-89
2021/12/17 13:35:33;;;;;;;;;;;;;;;14.63;57.87;104185.44;5067254;28;20058;-91
2021/12/17 13:37:59;;;;;;;;;;;;;;;15.18;57.49;104172.94;5062138;28;19984;-88
2021/12/17 13:40:26;;;;;;;;;;;;;;;15.00;59.02;104169.53;5062958;28;19929;-91
2021/12/17 13:42:51;;;;;;;;;;;;;;;15.65;55.99;104170.44;5061986;28;19924;-91
2021/12/17 13:45:18;;;;;;;;;;;;;;;16.60;52.45;104167.88;5062340;28;19916;-90
2021/12/17 13:47:47;;;;;;;;;;;;;;;16.58;52.44;104170.63;5072556;28;20024;-90
2021/12/17 13:50:25;;;;;;;;;;;;;;;16.12;53.12;104175.16;5051960;28;19939;-89
2021/12/17 13:53:04;;;;;;;;;;;;;;;17.24;49.84;104165.66;5072310;28;19920;-91
2021/12/17 13:55:34;;;;;;;;;;;;;;;17.22;50.31;104162.03;5058128;28;20345;-90
2021/12/17 13:58:00;;;;;;;;;;;;;;;16.22;51.97;104167.69;5062000;28;19917;-91
2021/12/17 14:00:35;;;;;;;;;;;;;;;16.86;50.71;104172.78;5061833;28;20508;-91
2021/12/17 14:03:01;;;;;;;;;;;;;;;17.16;49.36;104168.53;5052588;28;19924;-91
2021/12/17 14:05:30;;;;;;;;;;;;;;;16.66;51.02;104167.75;5063437;28;19912;-91
2021/12/17 14:08:00;;;;;;;;;;;;;;;16.06;52.46;104160.69;5044177;28;19924;-90
2021/12/17 14:10:32;;;;;;;;;;;;;;;15.70;53.77;104176.72;5055950;28;20575;-89
2021/12/17 14:12:58;;;;;;;;;;;;;;;17.09;50.06;104174.16;5059432;28;19921;-90
2021/12/17 14:15:28;;;;;;;;;;;;;;;16.01;53.18;104173.53;5056698;28;19960;-90
2021/12/17 14:17:56;;;;;;;;;;;;;;;16.16;52.60;104173.25;5062092;28;20003;-89
2021/12/17 14:20:22;;;;;;;;;;;;;;;16.40;52.13;104166.44;5056953;28;19925;-91
2021/12/17 14:22:52;;;;;;;;;;;;;;;15.52;53.75;104165.19;5050486;28;19929;-88
2021/12/17 14:25:31;;;;;;;;;;;;;;;15.59;54.02;104176.91;5058283;28;19917;-88
2021/12/17 14:27:58;;;;;;;;;;;;;;;16.58;51.21;104176.09;5053735;28;19923;-90
2021/12/17 14:30:34;;;;;;;;;;;;;;;16.63;51.13;104181.47;5053150;28;19917;-90
2021/12/17 14:33:06;;;;;;;;;;;;;;;15.84;52.38;104174.72;5056529;28;19927;-87
2021/12/17 14:35:38;;;;;;;;;;;;;;;16.18;52.51;104179.56;5061988;28;19916;-89
2021/12/17 14:38:04;;;;;;;;;;;;;;;16.57;50.22;104187.97;5062279;28;19920;-88
2021/12/17 14:40:36;;;;;;;;;;;;;;;16.54;51.12;104178.94;5061385;28;19970;-93
2021/12/17 14:43:01;;;;;;;;;;;;;;;16.62;51.20;104179.66;5054553;28;19917;-88
2021/12/17 14:45:31;;;;;;;;;;;;;;;17.30;48.88;104170.97;5055222;28;19970;-89
2021/12/17 14:48:13;;;;;;;;;;;;;;;17.08;49.66;104176.03;5054090;28;20299;-87
2021/12/17 15:02:10;;;;;;;;;;;;;;;17.48;48.27;104174.19;5062682;28;19924;-89
2021/12/17 15:04:35;;;;;;;;;;;;;;;18.04;46.58;104163.72;5052594;28;19927;-91
2021/12/17 15:07:01;;;;;;;;;;;;;;;16.92;48.60;104167.22;5048494;28;19909;-87
2021/12/17 15:09:27;;;;;;;;;;;;;;;17.77;47.83;104167.09;5052505;28;20293;-89
2021/12/17 15:11:58;;;;;;;;;;;;;;;17.71;48.01;104168.19;5049618;28;19921;-90
2021/12/17 15:14:23;;;;;;;;;;;;;;;17.48;48.67;104168.72;5052790;28;19928;-89
2021/12/17 15:16:49;;;;;;;;;;;;;;;17.46;48.66;104166.03;5044545;28;19926;-91
2021/12/17 15:19:14;;;;;;;;;;;;;;;17.66;47.41;104165.56;5055116;28;20019;-88
2021/12/17 15:21:39;;;;;;;;;;;;;;;18.10;46.71;104159.94;5051492;28;20022;-90
2021/12/17 15:24:04;;;;;;;;;;;;;;;18.36;46.09;104159.19;5045241;28;19921;-90
2021/12/17 15:26:30;;;;;;;;;;;;;;;18.61;45.62;104163.97;5049364;28;19966;-91
2021/12/17 15:28:55;;;;;;;;;;;;;;;18.62;45.30;104168.53;5055194;28;19924;-90
2021/12/17 15:31:20;;;;;;;;;;;;;;;18.59;45.57;104165.88;5049116;28;19921;-90
2021/12/17 15:33:45;;;;;;;;;;;;;;;18.72;45.45;104171.88;5059973;28;19925;-90
2021/12/17 15:36:11;;;;;;;;;;;;;;;18.55;45.44;104169.63;5046787;28;19928;-91
2021/12/17 15:38:39;;;;;;;;;;;;;;;18.69;45.45;104170.16;5048850;28;19920;-92